createdAt,value
2023-01-30T00:01:30.160Z,1.95
2023-01-30T00:49:45.884Z,1.53
2023-01-30T00:52:15.269Z,1.49
2023-01-30T00:54:44.069Z,1.46
2023-01-30T00:57:16.218Z,1.45
2023-01-30T00:59:44.569Z,1.44
2023-01-30T01:15:42.897Z,1.11
2023-01-30T01:20:46.861Z,1.19
2023-01-30T01:23:15.656Z,1.33
2023-01-30T01:25:44.224Z,1.34
2023-01-30T01:28:12.760Z,1.33
2023-01-30T01:38:39.207Z,1.28
2023-01-30T02:54:14.490Z,0.99
2023-01-30T02:56:53.136Z,0.97
2023-01-30T03:02:05.627Z,1.04
2023-01-30T03:04:35.837Z,1.00
2023-01-30T03:10:21.840Z,0.94
2023-01-30T03:13:04.405Z,0.92
2023-01-30T03:15:54.719Z,0.91
2023-01-30T03:18:22.860Z,0.94
2023-01-30T03:20:51.701Z,0.95
2023-01-30T03:23:21.099Z,0.95
2023-01-30T03:25:48.763Z,0.96
2023-01-30T03:57:58.239Z,0.91
2023-01-30T04:00:28.058Z,0.87
2023-01-30T04:02:57.306Z,0.83
2023-01-30T04:05:26.147Z,0.77
2023-01-30T04:07:59.386Z,0.74
2023-01-30T04:10:27.882Z,0.59
2023-01-30T04:34:25.001Z,0.75
2023-01-30T04:36:53.732Z,0.75
2023-01-30T04:39:22.268Z,0.66
2023-01-30T04:41:50.631Z,0.64
2023-01-30T04:44:19.499Z,0.60
2023-01-30T04:52:06.227Z,0.55
2023-01-30T04:54:34.640Z,0.52
2023-01-30T05:13:56.079Z,0.28
2023-01-30T05:16:25.000Z,0.21
2023-01-30T05:18:52.205Z,0.14
2023-01-30T05:21:22.830Z,0.13
2023-01-30T05:23:52.331Z,0.11
2023-01-30T05:26:20.982Z,0.09
2023-01-30T05:28:55.136Z,0.09
2023-01-30T05:31:23.415Z,0.08
2023-01-30T05:39:15.915Z,-0.04
2023-01-30T06:19:59.916Z,-0.34
2023-01-30T06:22:28.471Z,-0.30
2023-01-30T06:24:57.065Z,-0.28
2023-01-30T06:27:25.469Z,-0.31
2023-01-30T06:29:54.157Z,-0.29
2023-01-30T06:32:22.921Z,-0.34
2023-01-30T06:34:51.617Z,-0.37
2023-01-30T06:37:20.223Z,-0.45
2023-01-30T06:39:48.140Z,-0.47
2023-01-30T06:42:16.500Z,-0.40
2023-01-30T06:44:45.605Z,-0.42
2023-01-30T06:47:14.804Z,-0.33
2023-01-30T06:49:43.780Z,-0.37
2023-01-30T06:52:12.286Z,-0.35
2023-01-30T06:54:40.734Z,-0.41
2023-01-30T06:57:09.486Z,-0.38
2023-01-30T07:02:19.708Z,-0.19
2023-01-30T07:04:49.010Z,-0.08
2023-01-30T07:07:17.625Z,-0.01
2023-01-30T07:09:53.263Z,-0.01
2023-01-30T07:28:42.801Z,0.33
2023-01-30T08:22:41.782Z,2.38
2023-01-30T08:25:11.341Z,2.41
2023-01-30T08:43:51.845Z,2.50
2023-01-30T08:46:22.119Z,2.43
2023-01-30T08:48:50.454Z,2.33
2023-01-30T08:51:18.928Z,2.32
2023-01-30T08:53:46.782Z,2.30
2023-01-30T08:56:14.433Z,2.24
2023-01-30T08:58:43.814Z,2.18
2023-01-30T09:01:11.875Z,2.16
2023-01-30T09:03:39.833Z,2.15
2023-01-30T09:06:07.597Z,2.19
2023-01-30T09:08:35.680Z,2.18
2023-01-30T09:11:04.298Z,2.23
2023-01-30T09:13:32.015Z,2.36
2023-01-30T09:16:00.553Z,2.60
2023-01-30T09:18:28.316Z,2.91
2023-01-30T09:21:03.356Z,3.21
2023-01-30T09:23:31.411Z,3.35
2023-01-30T09:26:00.521Z,3.41
2023-01-30T09:28:28.727Z,3.55
2023-01-30T09:31:00.093Z,3.71
2023-01-30T09:33:27.336Z,3.83
2023-01-30T09:35:55.052Z,3.90
2023-01-30T09:38:22.847Z,3.94
2023-01-30T09:40:55.838Z,4.01
2023-01-30T09:43:23.275Z,4.20
2023-01-30T09:45:58.933Z,4.37
2023-01-30T09:48:31.092Z,4.46
2023-01-30T09:51:18.224Z,4.59
2023-01-30T09:53:53.508Z,4.80
2023-01-30T09:56:21.394Z,4.95
2023-01-30T09:59:00.372Z,5.14
2023-01-30T10:01:30.537Z,5.28
2023-01-30T10:04:12.415Z,5.28
2023-01-30T10:06:45.054Z,5.26
2023-01-30T10:09:14.509Z,5.24
2023-01-30T10:11:44.151Z,5.33
2023-01-30T10:14:20.368Z,5.41
2023-01-30T10:17:24.669Z,5.53
2023-01-30T10:20:32.712Z,5.59
2023-01-30T10:23:40.195Z,5.60
2023-01-30T10:26:07.554Z,5.49
2023-01-30T10:29:07.592Z,5.35
2023-01-30T10:31:51.577Z,5.20
2023-01-30T10:34:32.992Z,5.11
2023-01-30T10:37:10.419Z,4.98
2023-01-30T10:40:14.691Z,4.93
2023-01-30T10:42:55.115Z,4.87
2023-01-30T10:45:25.511Z,4.81
2023-01-30T10:47:56.719Z,4.87
2023-01-30T10:50:43.240Z,5.12
2023-01-30T10:53:21.819Z,5.36
2023-01-30T10:55:51.322Z,5.53
2023-01-30T10:58:56.482Z,5.71
2023-01-30T11:01:33.682Z,5.92
2023-01-30T11:04:03.675Z,6.10
2023-01-30T11:06:31.099Z,6.30
2023-01-30T11:08:59.447Z,6.39
2023-01-30T11:11:50.472Z,6.54
2023-01-30T11:14:18.089Z,6.77
2023-01-30T11:16:52.080Z,6.97
2023-01-30T11:19:22.201Z,7.08
2023-01-30T11:22:12.129Z,7.05
2023-01-30T11:24:43.675Z,7.22
2023-01-30T11:27:56.000Z,7.51
2023-01-30T11:30:27.553Z,7.66
2023-01-30T11:33:05.845Z,7.77
2023-01-30T11:35:34.763Z,7.82
2023-01-30T11:38:12.966Z,8.13
2023-01-30T11:40:41.435Z,8.19
2023-01-30T11:43:13.555Z,8.48
2023-01-30T11:45:48.404Z,8.64
2023-01-30T11:48:32.993Z,8.90
2023-01-30T11:51:07.841Z,9.17
2023-01-30T11:53:47.089Z,9.34
2023-01-30T11:56:33.444Z,9.41
2023-01-30T11:59:02.387Z,9.40
2023-01-30T12:01:30.808Z,9.53
2023-01-30T12:03:57.746Z,9.83
2023-01-30T12:06:33.197Z,9.95
2023-01-30T12:09:00.617Z,10.01
2023-01-30T12:11:44.857Z,10.19
2023-01-30T12:14:29.827Z,10.45
2023-01-30T12:17:19.598Z,10.67
2023-01-30T12:20:11.517Z,10.94
2023-01-30T12:22:46.485Z,11.13
2023-01-30T12:25:35.806Z,11.19
2023-01-30T12:28:25.535Z,11.51
2023-01-30T12:30:56.770Z,11.59
2023-01-30T12:33:26.539Z,11.54
2023-01-30T12:36:05.637Z,11.80
2023-01-30T12:38:51.396Z,11.85
2023-01-30T12:41:44.195Z,11.90
2023-01-30T12:44:42.334Z,12.04
2023-01-30T12:47:27.422Z,12.21
2023-01-30T12:49:57.870Z,12.53
2023-01-30T12:52:52.681Z,12.61
2023-01-30T12:55:27.753Z,12.70
2023-01-30T12:58:07.172Z,12.72
2023-01-30T13:01:01.382Z,12.71
2023-01-30T13:03:42.172Z,12.86
2023-01-30T13:06:19.265Z,12.73
2023-01-30T13:09:16.518Z,12.98
2023-01-30T13:11:55.094Z,12.92
2023-01-30T13:14:30.048Z,13.15
2023-01-30T13:17:16.710Z,13.13
2023-01-30T13:19:50.715Z,13.02
2023-01-30T13:22:58.870Z,13.14
2023-01-30T13:25:41.143Z,13.04
2023-01-30T13:28:19.306Z,12.96
2023-01-30T13:30:46.611Z,13.08
2023-01-30T13:33:29.453Z,13.16
2023-01-30T13:36:03.094Z,12.95
2023-01-30T13:38:50.336Z,13.39
2023-01-30T13:41:18.368Z,13.04
2023-01-30T13:43:50.005Z,13.15
2023-01-30T13:46:20.522Z,13.24
2023-01-30T13:49:05.915Z,13.25
2023-01-30T13:51:49.697Z,13.46
2023-01-30T13:54:22.751Z,13.77
2023-01-30T13:57:31.041Z,14.11
2023-01-30T14:00:10.116Z,14.38
2023-01-30T14:03:08.553Z,14.45
2023-01-30T14:06:03.318Z,14.00
2023-01-30T14:08:34.066Z,14.15
2023-01-30T14:11:01.564Z,14.55
2023-01-30T14:13:30.146Z,14.57
2023-01-30T14:16:02.091Z,14.13
2023-01-30T14:18:42.612Z,14.06
2023-01-30T14:21:40.341Z,14.00
2023-01-30T14:24:35.292Z,14.17
2023-01-30T14:27:23.769Z,14.25
2023-01-30T14:29:52.562Z,14.14
2023-01-30T14:32:19.274Z,13.65
2023-01-30T14:35:39.125Z,13.56
2023-01-30T14:38:14.890Z,13.40
2023-01-30T14:41:06.675Z,13.17
2023-01-30T14:43:42.465Z,13.08
2023-01-30T14:46:38.065Z,12.89
2023-01-30T14:49:06.887Z,12.68
2023-01-30T14:51:59.218Z,12.42
2023-01-30T14:54:40.929Z,11.90
2023-01-30T14:57:21.995Z,11.82
2023-01-30T15:00:14.986Z,11.96
2023-01-30T15:02:44.413Z,12.16
2023-01-30T15:06:02.774Z,12.15
2023-01-30T15:08:50.324Z,12.23
2023-01-30T15:11:18.749Z,12.36
2023-01-30T15:14:10.270Z,12.43
2023-01-30T15:16:49.342Z,12.53
2023-01-30T15:19:24.816Z,12.68
2023-01-30T15:22:32.739Z,13.31
2023-01-30T15:25:40.576Z,14.24
2023-01-30T15:28:22.786Z,14.49
2023-01-30T15:31:08.466Z,14.28
2023-01-30T15:33:35.774Z,13.84
2023-01-30T15:36:38.950Z,13.30
2023-01-30T15:39:25.386Z,13.05
2023-01-30T15:41:53.107Z,12.87
2023-01-30T15:44:35.010Z,12.57
2023-01-30T15:47:23.878Z,12.44
2023-01-30T15:50:03.222Z,12.15
2023-01-30T15:52:37.372Z,11.62
2023-01-30T15:55:05.349Z,11.12
2023-01-30T15:57:35.209Z,10.77
2023-01-30T16:00:03.552Z,10.50
2023-01-30T16:02:35.918Z,10.26
2023-01-30T16:05:36.245Z,10.07
2023-01-30T16:08:11.185Z,9.86
2023-01-30T16:10:44.828Z,9.64
2023-01-30T16:13:12.962Z,9.50
2023-01-30T16:15:43.148Z,9.31
2023-01-30T16:18:19.308Z,9.15
2023-01-30T16:21:00.119Z,9.02
2023-01-30T16:23:36.892Z,8.91
2023-01-30T16:26:03.784Z,8.78
2023-01-30T16:28:31.508Z,8.65
2023-01-30T16:31:06.326Z,8.55
2023-01-30T16:33:36.999Z,8.44
2023-01-30T16:36:06.799Z,8.40
2023-01-30T16:38:37.764Z,8.34
2023-01-30T16:41:05.151Z,8.28
2023-01-30T16:43:34.077Z,8.24
2023-01-30T16:46:42.237Z,8.19
2023-01-30T16:49:26.005Z,8.14
2023-01-30T16:52:14.624Z,8.10
2023-01-30T16:54:46.213Z,8.01
2023-01-30T16:57:28.595Z,7.94
2023-01-30T17:00:03.876Z,7.89
2023-01-30T17:02:55.131Z,7.85
2023-01-30T17:05:29.415Z,7.82
2023-01-30T17:07:56.611Z,7.76
2023-01-30T17:10:28.859Z,7.76
2023-01-30T17:12:57.617Z,7.65
2023-01-30T17:15:33.353Z,7.60
2023-01-30T17:18:00.609Z,7.60
2023-01-30T17:20:51.798Z,7.49
2023-01-30T17:23:20.310Z,7.40
2023-01-30T17:25:47.881Z,7.37
2023-01-30T17:28:21.395Z,7.34
2023-01-30T17:30:50.386Z,7.25
2023-01-30T17:33:18.779Z,7.18
2023-01-30T17:35:46.674Z,7.10
2023-01-30T17:38:14.574Z,7.04
2023-01-30T17:40:43.098Z,6.95
2023-01-30T17:43:13.173Z,6.95
2023-01-30T17:45:40.597Z,6.90
2023-01-30T17:48:08.304Z,6.82
2023-01-30T17:50:36.679Z,6.75
2023-01-30T17:53:04.302Z,6.72
2023-01-30T17:55:33.077Z,6.67
2023-01-30T17:58:00.731Z,6.61
2023-01-30T18:00:28.845Z,6.58
2023-01-30T18:02:56.561Z,6.54
2023-01-30T18:05:24.190Z,6.51
2023-01-30T18:07:52.274Z,6.47
2023-01-30T18:10:20.571Z,6.45
2023-01-30T18:12:48.398Z,6.45
2023-01-30T18:15:16.246Z,6.44
2023-01-30T18:17:47.743Z,6.37
2023-01-30T18:20:16.676Z,6.29
2023-01-30T18:22:44.787Z,6.30
2023-01-30T18:25:13.847Z,6.23
2023-01-30T18:27:44.727Z,6.16
2023-01-30T18:30:17.258Z,6.11
2023-01-30T18:32:52.842Z,6.07
2023-01-30T18:35:22.291Z,5.99
2023-01-30T18:37:50.299Z,5.91
2023-01-30T18:40:20.159Z,5.92
2023-01-30T18:42:47.539Z,5.90
2023-01-30T18:45:15.613Z,5.88
2023-01-30T18:47:43.739Z,5.84
2023-01-30T18:50:12.962Z,5.81
2023-01-30T18:52:40.615Z,5.77
2023-01-30T18:55:08.966Z,5.77
2023-01-30T18:57:36.609Z,5.77
2023-01-30T19:00:06.212Z,5.73
2023-01-30T19:02:34.375Z,5.65
2023-01-30T19:05:01.792Z,5.58
2023-01-30T19:07:29.686Z,5.58
2023-01-30T19:09:57.698Z,5.53
2023-01-30T19:12:43.763Z,5.51
2023-01-30T19:15:11.902Z,5.46
2023-01-30T19:17:39.545Z,5.40
2023-01-30T19:20:11.150Z,5.36
2023-01-30T19:22:39.209Z,5.34
2023-01-30T19:25:08.174Z,5.24
2023-01-30T19:27:37.348Z,5.20
2023-01-30T19:30:07.612Z,5.15
2023-01-30T19:32:35.391Z,5.14
2023-01-30T19:35:03.132Z,5.08
2023-01-30T19:37:30.722Z,5.07
2023-01-30T19:39:58.757Z,5.03
2023-01-30T19:42:26.896Z,4.94
2023-01-30T19:44:54.518Z,4.92
2023-01-30T19:47:23.014Z,4.95
2023-01-30T19:49:51.222Z,4.95
2023-01-30T19:52:19.380Z,4.91
2023-01-30T19:54:48.396Z,4.84
2023-01-30T19:57:16.495Z,4.85
2023-01-30T20:13:07.643Z,4.70
2023-01-30T20:26:52.064Z,4.50
2023-01-30T20:31:55.280Z,4.41
2023-01-30T20:34:24.037Z,4.35
2023-01-30T20:36:52.483Z,4.33
2023-01-30T20:47:47.697Z,4.20
2023-01-30T20:50:15.703Z,4.15
2023-01-30T20:52:43.928Z,4.12
2023-01-30T20:55:12.502Z,4.10
2023-01-30T20:57:43.589Z,4.07
2023-01-30T21:00:13.267Z,4.07
2023-01-30T21:02:42.731Z,4.03
2023-01-30T21:05:10.524Z,4.00
2023-01-30T21:07:38.540Z,3.97
2023-01-30T21:10:10.433Z,3.94
2023-01-30T22:09:06.334Z,3.38
2023-01-30T22:11:34.686Z,3.37
2023-01-30T22:14:02.813Z,3.29
2023-01-30T22:16:33.176Z,3.24
2023-01-30T22:19:03.185Z,3.23
2023-01-30T22:21:34.076Z,3.21
2023-01-30T22:24:02.178Z,3.18
2023-01-30T22:26:30.262Z,3.17
2023-01-30T22:28:59.432Z,3.16
2023-01-30T22:31:28.889Z,3.16
2023-01-30T22:33:56.550Z,3.14
2023-01-30T22:36:26.020Z,3.14
2023-01-30T22:38:54.262Z,3.10
2023-01-30T22:41:25.703Z,3.10
2023-01-30T22:43:55.584Z,3.10
2023-01-30T22:46:50.083Z,3.08
2023-01-30T22:49:18.049Z,3.04
2023-01-30T22:51:45.953Z,3.06
2023-01-30T22:54:17.230Z,3.00
2023-01-30T22:56:46.314Z,2.97
2023-01-30T22:59:14.463Z,2.98
2023-01-30T23:01:43.345Z,2.95
2023-01-30T23:04:37.797Z,2.94
2023-01-30T23:07:06.109Z,2.93
2023-01-30T23:09:34.084Z,2.93
2023-01-30T23:12:20.755Z,2.91
2023-01-30T23:14:48.825Z,2.88
2023-01-30T23:17:34.754Z,2.92
2023-01-30T23:20:02.700Z,2.95
2023-01-30T23:22:30.895Z,2.94
2023-01-30T23:24:58.999Z,2.92
2023-01-30T23:27:27.169Z,2.89
2023-01-30T23:29:55.256Z,2.85
2023-01-30T23:32:23.677Z,2.77
2023-01-30T23:34:50.900Z,2.76
2023-01-30T23:37:18.502Z,2.74
2023-01-30T23:39:46.708Z,2.72
2023-01-30T23:42:14.791Z,2.74
2023-01-30T23:44:42.814Z,2.71
2023-01-30T23:47:10.790Z,2.62
2023-01-30T23:49:38.747Z,2.58
2023-01-30T23:52:07.098Z,2.54
2023-01-30T23:54:35.230Z,2.52
2023-01-30T23:57:03.583Z,2.47
2023-01-30T23:59:31.360Z,2.34
